Christian W Cenac — WDF5379 — position and weather

sailwx.info

Track history (hours):
 
Tides and Currents Weather Stations Pressure Air Temp Water Temp Dewpoint Dewpoint Depression Visibility Wind Speed Wind Dir Waves Ship Positions

Christian W Cenac

Owner: CTCO Marine Services LLC, Houma, LA. More information available from US FCC via Universal Licensing System and Coast Guard Vessel Documentation Center.

Last reported at 2017-Sep-25 17:35 UTC. Time now 2017-Sep-26 11:05 UTC.
Position N 29°34' W 090°30'.

Length 85 m; draft 2.1 m.

Type: Tug. MMSI: 367462490.

Date/timePositionNaut miles runAvg speedWind from/ knotsBaromVisibWave heightAir tempDewpointWater temp
2017-Sep-25 17:35N 29°34' W 090°30'0 5.0
2017-Sep-25 17:29N 29°34' W 090°30'2 5.0
2017-Sep-25 17:00N 29°34' W 090°33'3 5.2
2017-Sep-25 16:30N 29°35' W 090°36'2 4.0
2017-Sep-25 16:00N 29°35' W 090°38'2 4.7
2017-Sep-25 15:30N 29°36' W 090°40'2 3.7
2017-Sep-25 15:00N 29°37' W 090°43'2 4.2
2017-Sep-25 14:31N 29°34' W 090°43'1 2.6
2017-Sep-25 14:00N 29°34' W 090°44'0 0.6
2017-Sep-25 13:31N 29°34' W 090°45'2 4.1
2017-Sep-25 13:00N 29°32' W 090°46'69 4.7
2017-Sep-24 22:18N 29°49' W 092°03'1 4.8
2017-Sep-24 22:01N 29°48' W 092°04'3 5.3
2017-Sep-24 21:31N 29°47' W 092°07'3 5.6
2017-Sep-24 21:01N 29°47' W 092°10'3 5.2
2017-Sep-24 20:30N 29°47' W 092°13'1 1.9
2017-Sep-24 20:00N 29°48' W 092°14'49 3.8
2017-Sep-24 07:13N 29°56' W 093°10'1 5.4
2017-Sep-24 07:00N 29°57' W 093°11'3 5.2
2017-Sep-24 06:30N 29°59' W 093°13'2 4.8
2017-Sep-24 06:01N 30°01' W 093°14'2 4.7
2017-Sep-24 05:30N 30°03' W 093°16'3 5.2
2017-Sep-24 05:01N 30°05' W 093°18'1 1.9
2017-Sep-24 04:31N 30°06' W 093°18'0 0.0
2017-Sep-24 04:01N 30°06' W 093°18'0 0.4
2017-Sep-24 03:31N 30°06' W 093°18'1 2.9
2017-Sep-24 03:01N 30°05' W 093°20'2 4.3
2017-Sep-24 02:31N 30°04' W 093°21'3 4.8
2017-Sep-24 01:59N 30°04' W 093°24'2 5.2
2017-Sep-24 01:30N 30°04' W 093°27'  
2017-Sep-21 13:43N 30°04' W 093°39'2 6.3
2017-Sep-21 13:26N 30°04' W 093°37'3 6.1
2017-Sep-21 12:58N 30°04' W 093°34'3 6.2
2017-Sep-21 12:31N 30°04' W 093°31'3 6.2
2017-Sep-21 12:01N 30°04' W 093°27'3 6.2
2017-Sep-21 11:31N 30°04' W 093°24'2 3.9
2017-Sep-21 11:01N 30°04' W 093°21'2 4.5
2017-Sep-21 10:31N 30°05' W 093°20'2 3.5
2017-Sep-21 10:01N 30°05' W 093°18'2 5.0
2017-Sep-21 09:31N 30°03' W 093°16'2 4.5
2017-Sep-21 09:01N 30°02' W 093°14'2 4.8
2017-Sep-21 08:31N 29°59' W 093°13'3 6.4
2017-Sep-21 08:00N 29°57' W 093°10'46 5.3
2017-Sep-20 23:26N 29°50' W 092°18'2 5.7
2017-Sep-20 23:01N 29°49' W 092°16'3 6.5
2017-Sep-20 22:30N 29°47' W 092°13'2 4.8
2017-Sep-20 22:00N 29°47' W 092°10'3 5.9
2017-Sep-20 21:31N 29°48' W 092°07'68 4.5
2017-Sep-20 06:24N 29°32' W 090°50'3 6.5
2017-Sep-20 06:00N 29°32' W 090°47'3 5.3
2017-Sep-20 05:31N 29°34' W 090°45'2 4.8
2017-Sep-20 05:01N 29°35' W 090°43'2 3.7
2017-Sep-20 04:31N 29°36' W 090°41'3 5.9
2017-Sep-20 04:00N 29°35' W 090°38'4 5.6
2017-Sep-20 03:13N 29°34' W 090°33'2 6.0
2017-Sep-20 02:55N 29°34' W 090°31'  
2017-Sep-17 10:28N 29°33' W 090°28'3 5.3
2017-Sep-17 09:59N 29°34' W 090°31'3 5.0
2017-Sep-17 09:27N 29°34' W 090°34'2 4.7
2017-Sep-17 09:00N 29°35' W 090°37'2 5.0
2017-Sep-17 08:31N 29°36' W 090°39'3 5.1
2017-Sep-17 08:01N 29°37' W 090°42'2 4.8
2017-Sep-17 07:30N 29°35' W 090°43'2 3.4
2017-Sep-17 07:00N 29°34' W 090°45'2 4.7
2017-Sep-17 06:30N 29°32' W 090°47'67 4.4
2017-Sep-16 15:22N 29°49' W 092°02'2 5.6
2017-Sep-16 15:01N 29°48' W 092°04'3 5.6
2017-Sep-16 14:31N 29°48' W 092°07'2 4.7
2017-Sep-16 14:00N 29°47' W 092°10'1 2.5
2017-Sep-16 13:31N 29°47' W 092°11'0 0.8
2017-Sep-16 13:01N 29°47' W 092°11'1 3.0
2017-Sep-16 12:30N 29°47' W 092°13'1 2.2
2017-Sep-16 12:00N 29°48' W 092°14'0 0.0
2017-Sep-16 11:31N 29°48' W 092°14'2 3.4
2017-Sep-16 11:01N 29°49' W 092°16'0 0.4
2017-Sep-16 10:31N 29°49' W 092°16'0 0.0
2017-Sep-16 10:01N 29°49' W 092°16'0 0.0
2017-Sep-16 09:31N 29°49' W 092°16'0 0.0
2017-Sep-16 09:00N 29°49' W 092°16'0 0.0
2017-Sep-16 08:31N 29°49' W 092°16'1 1.3
2017-Sep-16 08:00N 29°48' W 092°16'0 0.9
2017-Sep-16 07:30N 29°48' W 092°16'0 0.6
2017-Sep-16 06:51N 29°49' W 092°17'0 0.4
2017-Sep-16 06:29N 29°49' W 092°17'2 2.8
2017-Sep-16 05:37N 29°50' W 092°19'42 5.1
2017-Sep-15 21:21N 29°56' W 093°07'2 4.9
2017-Sep-15 20:59N 29°56' W 093°09'2 4.7
2017-Sep-15 20:30N 29°58' W 093°11'2 4.9
2017-Sep-15 20:00N 29°59' W 093°13'2 4.6
2017-Sep-15 19:30N 30°01' W 093°14'2 4.7
2017-Sep-15 19:00N 30°03' W 093°16'3 5.0
2017-Sep-15 18:30N 30°05' W 093°17'2 3.6
2017-Sep-15 18:00N 30°06' W 093°19'  
Track history (hours):
 
Tides and Currents Weather Stations Pressure Air Temp Water Temp Dewpoint Dewpoint Depression Visibility Wind Speed Wind Dir Waves Ship Positions

Christian W Cenac

Owner: CTCO Marine Services LLC, Houma, LA. More information available from US FCC via Universal Licensing System and Coast Guard Vessel Documentation Center.

Last reported at 2017-Sep-25 17:35 UTC. Time now 2017-Sep-26 11:05 UTC.
Position N 29°34' W 090°30'.

Length 85 m; draft 2.1 m.

Type: Tug. MMSI: 367462490.

Date/timePositionNaut miles runAvg speedWind from/ knotsBaromVisibWave heightAir tempDewpointWater temp
2017-Sep-25 17:35N 29°34' W 090°30'0 5.0
2017-Sep-25 17:29N 29°34' W 090°30'2 5.0
2017-Sep-25 17:00N 29°34' W 090°33'3 5.2
2017-Sep-25 16:30N 29°35' W 090°36'2 4.0
2017-Sep-25 16:00N 29°35' W 090°38'2 4.7
2017-Sep-25 15:30N 29°36' W 090°40'2 3.7
2017-Sep-25 15:00N 29°37' W 090°43'2 4.2
2017-Sep-25 14:31N 29°34' W 090°43'1 2.6
2017-Sep-25 14:00N 29°34' W 090°44'0 0.6
2017-Sep-25 13:31N 29°34' W 090°45'2 4.1
2017-Sep-25 13:00N 29°32' W 090°46'69 4.7
2017-Sep-24 22:18N 29°49' W 092°03'1 4.8
2017-Sep-24 22:01N 29°48' W 092°04'3 5.3
2017-Sep-24 21:31N 29°47' W 092°07'3 5.6
2017-Sep-24 21:01N 29°47' W 092°10'3 5.2
2017-Sep-24 20:30N 29°47' W 092°13'1 1.9
2017-Sep-24 20:00N 29°48' W 092°14'49 3.8
2017-Sep-24 07:13N 29°56' W 093°10'1 5.4
2017-Sep-24 07:00N 29°57' W 093°11'3 5.2
2017-Sep-24 06:30N 29°59' W 093°13'2 4.8
2017-Sep-24 06:01N 30°01' W 093°14'2 4.7
2017-Sep-24 05:30N 30°03' W 093°16'3 5.2
2017-Sep-24 05:01N 30°05' W 093°18'1 1.9
2017-Sep-24 04:31N 30°06' W 093°18'0 0.0
2017-Sep-24 04:01N 30°06' W 093°18'0 0.4
2017-Sep-24 03:31N 30°06' W 093°18'1 2.9
2017-Sep-24 03:01N 30°05' W 093°20'2 4.3
2017-Sep-24 02:31N 30°04' W 093°21'3 4.8
2017-Sep-24 01:59N 30°04' W 093°24'2 5.2
2017-Sep-24 01:30N 30°04' W 093°27'  
2017-Sep-21 13:43N 30°04' W 093°39'2 6.3
2017-Sep-21 13:26N 30°04' W 093°37'3 6.1
2017-Sep-21 12:58N 30°04' W 093°34'3 6.2
2017-Sep-21 12:31N 30°04' W 093°31'3 6.2
2017-Sep-21 12:01N 30°04' W 093°27'3 6.2
2017-Sep-21 11:31N 30°04' W 093°24'2 3.9
2017-Sep-21 11:01N 30°04' W 093°21'2 4.5
2017-Sep-21 10:31N 30°05' W 093°20'2 3.5
2017-Sep-21 10:01N 30°05' W 093°18'2 5.0
2017-Sep-21 09:31N 30°03' W 093°16'2 4.5
2017-Sep-21 09:01N 30°02' W 093°14'2 4.8
2017-Sep-21 08:31N 29°59' W 093°13'3 6.4
2017-Sep-21 08:00N 29°57' W 093°10'46 5.3
2017-Sep-20 23:26N 29°50' W 092°18'2 5.7
2017-Sep-20 23:01N 29°49' W 092°16'3 6.5
2017-Sep-20 22:30N 29°47' W 092°13'2 4.8
2017-Sep-20 22:00N 29°47' W 092°10'3 5.9
2017-Sep-20 21:31N 29°48' W 092°07'68 4.5
2017-Sep-20 06:24N 29°32' W 090°50'3 6.5
2017-Sep-20 06:00N 29°32' W 090°47'3 5.3
2017-Sep-20 05:31N 29°34' W 090°45'2 4.8
2017-Sep-20 05:01N 29°35' W 090°43'2 3.7
2017-Sep-20 04:31N 29°36' W 090°41'3 5.9
2017-Sep-20 04:00N 29°35' W 090°38'4 5.6
2017-Sep-20 03:13N 29°34' W 090°33'2 6.0
2017-Sep-20 02:55N 29°34' W 090°31'  
2017-Sep-17 10:28N 29°33' W 090°28'3 5.3
2017-Sep-17 09:59N 29°34' W 090°31'3 5.0
2017-Sep-17 09:27N 29°34' W 090°34'2 4.7
2017-Sep-17 09:00N 29°35' W 090°37'2 5.0
2017-Sep-17 08:31N 29°36' W 090°39'3 5.1
2017-Sep-17 08:01N 29°37' W 090°42'2 4.8
2017-Sep-17 07:30N 29°35' W 090°43'2 3.4
2017-Sep-17 07:00N 29°34' W 090°45'2 4.7
2017-Sep-17 06:30N 29°32' W 090°47'67 4.4
2017-Sep-16 15:22N 29°49' W 092°02'2 5.6
2017-Sep-16 15:01N 29°48' W 092°04'3 5.6
2017-Sep-16 14:31N 29°48' W 092°07'2 4.7
2017-Sep-16 14:00N 29°47' W 092°10'1 2.5
2017-Sep-16 13:31N 29°47' W 092°11'0 0.8
2017-Sep-16 13:01N 29°47' W 092°11'1 3.0
2017-Sep-16 12:30N 29°47' W 092°13'1 2.2
2017-Sep-16 12:00N 29°48' W 092°14'0 0.0
2017-Sep-16 11:31N 29°48' W 092°14'2 3.4
2017-Sep-16 11:01N 29°49' W 092°16'0 0.4
2017-Sep-16 10:31N 29°49' W 092°16'0 0.0
2017-Sep-16 10:01N 29°49' W 092°16'0 0.0
2017-Sep-16 09:31N 29°49' W 092°16'0 0.0
2017-Sep-16 09:00N 29°49' W 092°16'0 0.0
2017-Sep-16 08:31N 29°49' W 092°16'1 1.3
2017-Sep-16 08:00N 29°48' W 092°16'0 0.9
2017-Sep-16 07:30N 29°48' W 092°16'0 0.6
2017-Sep-16 06:51N 29°49' W 092°17'0 0.4
2017-Sep-16 06:29N 29°49' W 092°17'2 2.8
2017-Sep-16 05:37N 29°50' W 092°19'42 5.1
2017-Sep-15 21:21N 29°56' W 093°07'2 4.9
2017-Sep-15 20:59N 29°56' W 093°09'2 4.7
2017-Sep-15 20:30N 29°58' W 093°11'2 4.9
2017-Sep-15 20:00N 29°59' W 093°13'2 4.6
2017-Sep-15 19:30N 30°01' W 093°14'2 4.7
2017-Sep-15 19:00N 30°03' W 093°16'3 5.0
2017-Sep-15 18:30N 30°05' W 093°17'2 3.6
2017-Sep-15 18:00N 30°06' W 093°19'  

Dump ship's entire track history